Time;durP1;ratioP1;P1;durP2;ratioP2;P2;SDS_P1;SDS_P2;PMS_P1;PMS_P2;Temp;Humidity;BMP_temperature;BMP_pressure;BME280_temperature;BME280_humidity;BME280_pressure;Samples;Min_cycle;Max_cycle;Signal;HPM_P1;HPM_P2
2023/04/03 00:02:02;;;;;;;3.22;1.67;;;;;;;;;;5073113;28;20647;-60
2023/04/03 00:04:29;;;;;;;3.00;1.27;;;;;;;;;;5073056;28;20202;-60
2023/04/03 00:06:56;;;;;;;6.20;1.50;;;;;;;;;;5073263;28;20186;-60
2023/04/03 00:09:25;;;;;;;4.05;1.38;;;;;;;;;;5073243;28;20196;-62
2023/04/03 00:11:52;;;;;;;3.25;1.58;;;;;;;;;;5073057;28;20267;-60
2023/04/03 00:14:18;;;;;;;3.85;1.63;;;;;;;;;;5073018;28;20191;-60
2023/04/03 00:16:45;;;;;;;4.00;1.33;;;;;;;;;;5072953;28;20186;-60
2023/04/03 00:19:12;;;;;;;8.13;1.60;;;;;;;;;;5073221;28;20610;-60
2023/04/03 00:21:40;;;;;;;2.85;1.08;;;;;;;;;;5073042;28;20283;-60
2023/04/03 00:24:07;;;;;;;7.43;1.92;;;;;;;;;;5072906;28;20210;-60
2023/04/03 00:26:35;;;;;;;5.50;1.35;;;;;;;;;;5072835;28;20614;-60
2023/04/03 00:29:02;;;;;;;1.55;1.13;;;;;;;;;;5072865;28;20286;-60
2023/04/03 00:31:29;;;;;;;1.40;1.30;;;;;;;;;;5072592;28;20217;-60
2023/04/03 00:33:56;;;;;;;6.28;1.85;;;;;;;;;;5073071;28;20202;-60
2023/04/03 00:36:23;;;;;;;3.20;1.10;;;;;;;;;;5072861;28;20206;-60
2023/04/03 00:38:50;;;;;;;1.65;1.23;;;;;;;;;;5072778;28;20608;-60
2023/04/03 00:41:17;;;;;;;2.85;0.95;;;;;;;;;;5072668;28;20203;-60
2023/04/03 00:43:45;;;;;;;5.07;1.75;;;;;;;;;;5072427;28;20314;-60
2023/04/03 00:46:12;;;;;;;7.57;1.80;;;;;;;;;;5072784;28;20184;-60
2023/04/03 00:48:41;;;;;;;3.28;1.30;;;;;;;;;;5071988;28;20280;-60
2023/04/03 00:51:10;;;;;;;3.92;0.98;;;;;;;;;;5072550;28;20192;-60
2023/04/03 00:53:38;;;;;;;3.22;1.40;;;;;;;;;;5072900;28;20274;-60
2023/04/03 00:56:08;;;;;;;4.22;1.15;;;;;;;;;;5072613;28;20247;-60
2023/04/03 00:58:38;;;;;;;3.42;1.20;;;;;;;;;;5072462;28;20203;-60
2023/04/03 01:01:09;;;;;;;3.08;1.25;;;;;;;;;;5072802;28;20189;-60
2023/04/03 01:03:36;;;;;;;2.10;1.00;;;;;;;;;;5072537;28;20279;-60
2023/04/03 01:06:03;;;;;;;2.55;1.20;;;;;;;;;;5072497;28;20196;-60
2023/04/03 01:08:30;;;;;;;2.58;1.00;;;;;;;;;;5072412;28;20715;-60
2023/04/03 01:10:57;;;;;;;3.05;1.20;;;;;;;;;;5072329;28;20563;-60
2023/04/03 01:13:26;;;;;;;3.08;0.90;;;;;;;;;;5072502;28;20224;-60
2023/04/03 01:15:53;;;;;;;3.90;1.45;;;;;;;;;;5072517;28;20188;-60
2023/04/03 01:18:22;;;;;;;2.22;1.10;;;;;;;;;;5072469;28;20198;-60
2023/04/03 01:21:01;;;;;;;2.65;1.08;;;;;;;;;;5072355;28;20196;-60
2023/04/03 01:23:38;;;;;;;3.88;1.30;;;;;;;;;;5072280;28;20291;-60
2023/04/03 01:26:05;;;;;;;2.33;1.10;;;;;;;;;;5072398;28;20279;-60
2023/04/03 01:28:33;;;;;;;2.20;1.05;;;;;;;;;;5072591;28;20640;-60
2023/04/03 01:31:02;;;;;;;1.75;1.42;;;;;;;;;;5072447;28;20196;-60
2023/04/03 01:33:31;;;;;;;3.28;1.25;;;;;;;;;;5072176;28;20224;-60
2023/04/03 01:35:58;;;;;;;3.38;1.17;;;;;;;;;;5072158;28;20474;-60
2023/04/03 01:38:25;;;;;;;1.73;1.05;;;;;;;;;;5072303;28;20279;-60
2023/04/03 01:40:52;;;;;;;11.32;1.40;;;;;;;;;;5072250;28;20193;-60
2023/04/03 01:43:19;;;;;;;2.45;1.08;;;;;;;;;;5071921;28;20243;-61
2023/04/03 01:45:46;;;;;;;3.38;1.30;;;;;;;;;;5072060;28;20203;-60
2023/04/03 01:48:13;;;;;;;1.40;1.08;;;;;;;;;;5072233;28;20496;-60
2023/04/03 01:50:42;;;;;;;4.90;1.40;;;;;;;;;;5071915;28;20191;-60
2023/04/03 01:53:09;;;;;;;3.80;1.73;;;;;;;;;;5071996;28;20586;-60
2023/04/03 01:55:36;;;;;;;1.15;0.82;;;;;;;;;;5071908;28;20714;-60
2023/04/03 01:58:03;;;;;;;5.18;1.40;;;;;;;;;;5072068;28;20188;-60
2023/04/03 02:00:30;;;;;;;7.38;1.98;;;;;;;;;;5074186;28;20192;-60
2023/04/03 02:02:57;;;;;;;1.60;1.00;;;;;;;;;;5075578;28;20670;-60
2023/04/03 02:05:24;;;;;;;2.67;1.30;;;;;;;;;;5075514;28;20701;-60
2023/04/03 02:07:53;;;;;;;1.65;1.35;;;;;;;;;;5075621;28;20287;-60
2023/04/03 02:10:20;;;;;;;3.35;1.23;;;;;;;;;;5075618;28;20283;-60
2023/04/03 02:12:47;;;;;;;3.17;1.10;;;;;;;;;;5075376;28;20684;-60
2023/04/03 02:15:14;;;;;;;2.25;1.10;;;;;;;;;;5075421;28;20651;-60
2023/04/03 02:17:41;;;;;;;1.35;1.25;;;;;;;;;;5075302;28;20266;-60
2023/04/03 02:20:08;;;;;;;2.75;1.52;;;;;;;;;;5075442;28;20223;-60
2023/04/03 02:22:36;;;;;;;4.22;0.90;;;;;;;;;;5075379;28;20215;-60
2023/04/03 02:25:04;;;;;;;3.30;1.38;;;;;;;;;;5075344;28;20566;-60
2023/04/03 02:27:31;;;;;;;1.75;1.20;;;;;;;;;;5075167;28;20187;-60
2023/04/03 02:29:59;;;;;;;3.67;1.38;;;;;;;;;;5075111;28;20203;-60
2023/04/03 02:32:26;;;;;;;5.68;1.23;;;;;;;;;;5074927;28;20258;-60
2023/04/03 02:34:52;;;;;;;6.13;1.17;;;;;;;;;;5075142;28;20194;-60
2023/04/03 02:37:20;;;;;;;3.92;1.35;;;;;;;;;;5075088;28;20188;-60
2023/04/03 02:39:47;;;;;;;2.88;1.25;;;;;;;;;;5075008;28;20289;-60
2023/04/03 02:42:15;;;;;;;4.47;1.40;;;;;;;;;;5074905;28;20283;-60
2023/04/03 02:44:42;;;;;;;2.47;1.20;;;;;;;;;;5074635;28;20220;-60
2023/04/03 02:47:09;;;;;;;3.47;1.75;;;;;;;;;;5075079;28;20231;-60
2023/04/03 02:49:36;;;;;;;2.58;1.20;;;;;;;;;;5074933;28;20197;-60
2023/04/03 02:52:03;;;;;;;4.35;1.10;;;;;;;;;;5074730;28;20219;-60
2023/04/03 02:54:30;;;;;;;2.75;1.40;;;;;;;;;;5074939;28;20220;-60
2023/04/03 02:56:57;;;;;;;5.78;1.30;;;;;;;;;;5074626;28;20188;-60
2023/04/03 02:59:25;;;;;;;2.90;1.13;;;;;;;;;;5074565;28;20283;-60
2023/04/03 03:01:52;;;;;;;4.63;1.70;;;;;;;;;;5074659;28;20187;-60
2023/04/03 03:04:19;;;;;;;2.55;1.60;;;;;;;;;;5074500;28;20279;-60
2023/04/03 03:06:47;;;;;;;5.65;1.52;;;;;;;;;;5074509;28;20195;-60
2023/04/03 03:09:14;;;;;;;2.70;1.08;;;;;;;;;;5074390;28;20186;-60
2023/04/03 03:11:41;;;;;;;3.63;1.30;;;;;;;;;;5073696;28;20232;-60
2023/04/03 03:14:08;;;;;;;6.40;1.40;;;;;;;;;;5074236;28;20189;-60
2023/04/03 03:16:36;;;;;;;5.13;1.23;;;;;;;;;;5074342;28;20193;-60
2023/04/03 03:19:03;;;;;;;5.78;1.20;;;;;;;;;;5074262;28;20191;-60
2023/04/03 03:21:30;;;;;;;5.78;1.50;;;;;;;;;;5074152;28;20198;-60
2023/04/03 03:23:57;;;;;;;1.35;1.00;;;;;;;;;;5073962;28;20200;-60
2023/04/03 03:26:24;;;;;;;1.80;1.02;;;;;;;;;;5073904;28;20229;-60
2023/04/03 03:28:51;;;;;;;8.25;1.58;;;;;;;;;;5074113;28;20200;-60
2023/04/03 03:31:18;;;;;;;1.55;1.17;;;;;;;;;;5074040;28;20192;-60
2023/04/03 03:33:47;;;;;;;3.22;1.50;;;;;;;;;;5073924;28;20315;-60
2023/04/03 03:36:14;;;;;;;4.80;1.65;;;;;;;;;;5073833;28;20196;-60
2023/04/03 03:38:41;;;;;;;3.20;2.35;;;;;;;;;;5073804;28;20187;-59
2023/04/03 03:41:08;;;;;;;7.85;1.45;;;;;;;;;;5073672;28;20352;-60
2023/04/03 03:43:35;;;;;;;3.58;1.48;;;;;;;;;;5073623;28;20230;-60
2023/04/03 03:46:02;;;;;;;3.78;1.63;;;;;;;;;;5073648;28;20558;-59
2023/04/03 03:48:29;;;;;;;2.90;1.90;;;;;;;;;;5073576;28;20227;-59
2023/04/03 03:50:57;;;;;;;2.25;1.50;;;;;;;;;;5073609;28;20269;-60
2023/04/03 03:53:24;;;;;;;8.00;1.60;;;;;;;;;;5073260;28;20219;-60
2023/04/03 03:55:51;;;;;;;4.45;1.55;;;;;;;;;;5073598;28;20276;-60
2023/04/03 03:58:18;;;;;;;2.08;1.30;;;;;;;;;;5073548;28;20194;-60
2023/04/03 04:00:45;;;;;;;1.73;1.25;;;;;;;;;;5073500;28;20195;-60
2023/04/03 04:03:12;;;;;;;7.25;1.60;;;;;;;;;;5073348;28;20199;-60
2023/04/03 04:05:39;;;;;;;6.13;1.42;;;;;;;;;;5073251;28;20202;-60
2023/04/03 04:08:07;;;;;;;4.50;1.77;;;;;;;;;;5073107;28;20198;-61
2023/04/03 04:10:34;;;;;;;1.55;1.40;;;;;;;;;;5073373;28;20200;-59
2023/04/03 04:13:01;;;;;;;3.72;1.48;;;;;;;;;;5072967;28;20227;-60
2023/04/03 04:15:28;;;;;;;3.50;1.30;;;;;;;;;;5073233;28;20228;-60
2023/04/03 04:17:56;;;;;;;6.10;1.42;;;;;;;;;;5073072;28;20221;-60
2023/04/03 04:20:23;;;;;;;4.57;1.50;;;;;;;;;;5072898;28;20223;-60
2023/04/03 04:22:50;;;;;;;1.92;1.42;;;;;;;;;;5072765;28;20211;-60
2023/04/03 04:25:19;;;;;;;2.63;1.20;;;;;;;;;;5073045;28;20222;-60
2023/04/03 04:27:46;;;;;;;3.35;1.83;;;;;;;;;;5073134;28;20192;-60
2023/04/03 04:30:13;;;;;;;2.67;2.00;;;;;;;;;;5072901;28;20286;-60
2023/04/03 04:32:40;;;;;;;2.55;1.25;;;;;;;;;;5072772;28;20302;-60
2023/04/03 04:35:07;;;;;;;2.55;1.40;;;;;;;;;;5072624;28;20644;-60
2023/04/03 04:37:35;;;;;;;8.48;1.58;;;;;;;;;;5072996;28;20229;-60
2023/04/03 04:40:02;;;;;;;4.10;1.83;;;;;;;;;;5072890;28;20202;-60
2023/04/03 04:42:30;;;;;;;6.30;2.20;;;;;;;;;;5072661;28;20285;-60
2023/04/03 04:44:57;;;;;;;3.25;1.58;;;;;;;;;;5072443;28;20249;-59
2023/04/03 04:47:24;;;;;;;8.85;3.60;;;;;;;;;;5072551;28;20299;-60
2023/04/03 04:49:51;;;;;;;6.95;2.38;;;;;;;;;;5072534;28;20621;-59
2023/04/03 04:52:18;;;;;;;4.05;1.63;;;;;;;;;;5072600;28;20321;-62
2023/04/03 04:54:45;;;;;;;7.38;1.80;;;;;;;;;;5072400;28;20720;-62
2023/04/03 04:57:12;;;;;;;3.95;1.50;;;;;;;;;;5072454;28;20259;-59
2023/04/03 04:59:40;;;;;;;4.05;2.00;;;;;;;;;;5072480;28;20336;-60
2023/04/03 05:02:07;;;;;;;2.30;1.48;;;;;;;;;;5072471;28;20229;-60
2023/04/03 05:04:34;;;;;;;3.45;1.10;;;;;;;;;;5072186;28;20284;-60
2023/04/03 05:07:01;;;;;;;4.28;1.25;;;;;;;;;;5072638;28;20655;-60
2023/04/03 05:09:27;;;;;;;2.40;1.83;;;;;;;;;;5072582;28;20665;-60
2023/04/03 05:11:56;;;;;;;5.45;1.88;;;;;;;;;;5072355;28;20290;-60
2023/04/03 05:14:23;;;;;;;6.15;1.90;;;;;;;;;;5072310;28;20729;-60
2023/04/03 05:16:53;;;;;;;6.03;1.75;;;;;;;;;;5072354;28;20200;-60
2023/04/03 05:19:20;;;;;;;6.10;1.88;;;;;;;;;;5072640;28;20217;-60
2023/04/03 05:21:47;;;;;;;9.60;2.13;;;;;;;;;;5072540;28;20559;-59
2023/04/03 05:24:15;;;;;;;9.95;2.00;;;;;;;;;;5072224;28;20295;-60
2023/04/03 05:26:42;;;;;;;9.45;1.95;;;;;;;;;;5072276;28;20190;-60
2023/04/03 05:29:10;;;;;;;3.95;2.00;;;;;;;;;;5072140;28;20280;-60
2023/04/03 05:31:37;;;;;;;2.05;1.50;;;;;;;;;;5072323;28;20195;-60
2023/04/03 05:34:05;;;;;;;4.82;2.08;;;;;;;;;;5072197;28;20263;-61
2023/04/03 05:36:32;;;;;;;3.53;1.55;;;;;;;;;;5076214;28;20239;-60
2023/04/03 05:38:59;;;;;;;5.40;1.83;;;;;;;;;;5076163;28;20215;-60
2023/04/03 05:41:26;;;;;;;4.22;2.00;;;;;;;;;;5075818;28;20243;-60
2023/04/03 05:43:53;;;;;;;1.88;1.60;;;;;;;;;;5075629;28;20413;-60
2023/04/03 05:46:21;;;;;;;5.20;1.58;;;;;;;;;;5076038;28;20193;-60
2023/04/03 05:48:49;;;;;;;4.70;1.55;;;;;;;;;;5076102;28;20605;-61
2023/04/03 05:51:19;;;;;;;4.32;1.58;;;;;;;;;;5075919;28;20188;-60
2023/04/03 05:53:47;;;;;;;4.20;1.50;;;;;;;;;;5075641;28;20229;-61
2023/04/03 05:56:14;;;;;;;4.80;1.90;;;;;;;;;;5075739;28;20188;-61
2023/04/03 05:58:41;;;;;;;5.38;2.00;;;;;;;;;;5075628;28;20194;-60
2023/04/03 06:01:08;;;;;;;4.95;1.42;;;;;;;;;;5075778;28;20191;-61
2023/04/03 06:03:35;;;;;;;4.00;1.67;;;;;;;;;;5075432;28;20291;-60
2023/04/03 06:06:04;;;;;;;1.85;1.75;;;;;;;;;;5075580;28;20194;-60
2023/04/03 06:08:32;;;;;;;3.33;1.73;;;;;;;;;;5075429;28;20197;-60
2023/04/03 06:10:59;;;;;;;6.25;1.98;;;;;;;;;;5075254;28;20682;-61
2023/04/03 06:13:26;;;;;;;3.55;1.85;;;;;;;;;;5075511;28;20220;-60
2023/04/03 06:15:53;;;;;;;4.70;1.70;;;;;;;;;;5075452;28;20190;-60
2023/04/03 06:18:20;;;;;;;2.70;1.60;;;;;;;;;;5075512;28;20276;-60
2023/04/03 06:20:47;;;;;;;3.20;1.17;;;;;;;;;;5075176;28;20728;-60
2023/04/03 06:23:14;;;;;;;5.93;1.90;;;;;;;;;;5075136;28;20657;-61
2023/04/03 06:25:42;;;;;;;2.65;1.55;;;;;;;;;;5075106;28;20192;-61
2023/04/03 06:28:10;;;;;;;4.60;1.20;;;;;;;;;;5075291;28;20200;-60
2023/04/03 06:30:37;;;;;;;1.92;1.52;;;;;;;;;;5075303;28;20196;-60
2023/04/03 06:33:04;;;;;;;1.50;1.38;;;;;;;;;;5075133;28;20568;-61
2023/04/03 06:35:31;;;;;;;3.20;1.50;;;;;;;;;;5075171;28;20185;-60
2023/04/03 06:37:58;;;;;;;3.25;1.60;;;;;;;;;;5075254;28;20200;-61
2023/04/03 06:40:27;;;;;;;2.03;1.00;;;;;;;;;;5074959;28;20635;-60
2023/04/03 06:42:55;;;;;;;6.53;1.67;;;;;;;;;;5075296;28;20652;-61
2023/04/03 06:45:22;;;;;;;6.57;1.38;;;;;;;;;;5074738;28;20265;-60
2023/04/03 06:47:49;;;;;;;7.05;1.38;;;;;;;;;;5074170;28;20188;-61
2023/04/03 06:50:16;;;;;;;2.15;1.40;;;;;;;;;;5075505;28;20190;-61
2023/04/03 06:52:43;;;;;;;3.80;1.63;;;;;;;;;;5074758;28;20189;-60
2023/04/03 06:55:11;;;;;;;2.72;1.52;;;;;;;;;;5074869;28;20315;-61
2023/04/03 06:57:38;;;;;;;3.03;1.45;;;;;;;;;;5074736;28;20243;-61
2023/04/03 07:00:08;;;;;;;2.35;1.10;;;;;;;;;;5074533;28;20554;-63
2023/04/03 07:02:35;;;;;;;2.67;1.77;;;;;;;;;;5074770;28;20218;-61
2023/04/03 07:05:03;;;;;;;4.90;1.40;;;;;;;;;;5074099;28;20194;-60
2023/04/03 07:07:30;;;;;;;5.18;1.50;;;;;;;;;;5074509;28;20220;-61
2023/04/03 07:09:57;;;;;;;1.73;1.10;;;;;;;;;;5074528;28;20193;-61
2023/04/03 07:12:24;;;;;;;1.88;1.17;;;;;;;;;;5074471;28;20189;-61
2023/04/03 07:14:51;;;;;;;1.73;1.00;;;;;;;;;;5074520;28;20303;-60
2023/04/03 07:17:19;;;;;;;3.10;1.30;;;;;;;;;;5074725;28;20660;-61
2023/04/03 07:19:46;;;;;;;2.25;1.10;;;;;;;;;;5074241;28;20194;-60
2023/04/03 07:22:13;;;;;;;3.80;1.10;;;;;;;;;;5074404;28;20192;-61
2023/04/03 07:24:40;;;;;;;2.60;1.35;;;;;;;;;;5074194;28;20277;-61
2023/04/03 07:27:08;;;;;;;2.97;1.15;;;;;;;;;;5073985;28;20694;-61
2023/04/03 07:29:35;;;;;;;2.22;0.85;;;;;;;;;;5074174;28;20272;-60
2023/04/03 07:32:02;;;;;;;3.30;1.00;;;;;;;;;;5073819;28;20284;-61
2023/04/03 07:34:30;;;;;;;2.75;1.17;;;;;;;;;;5074142;28;20316;-60
2023/04/03 07:36:57;;;;;;;1.95;0.90;;;;;;;;;;5074024;28;20225;-60
2023/04/03 07:39:24;;;;;;;0.80;0.80;;;;;;;;;;5074016;28;20193;-60
2023/04/03 07:41:51;;;;;;;1.55;0.80;;;;;;;;;;5073851;28;20189;-60
2023/04/03 07:44:18;;;;;;;1.30;1.02;;;;;;;;;;5073544;28;20285;-61
2023/04/03 07:46:46;;;;;;;1.65;0.80;;;;;;;;;;5073591;28;20195;-60
2023/04/03 07:49:13;;;;;;;2.83;1.20;;;;;;;;;;5073731;28;20248;-60
2023/04/03 07:51:41;;;;;;;4.07;1.20;;;;;;;;;;5073598;28;20200;-60
2023/04/03 07:54:08;;;;;;;2.00;0.85;;;;;;;;;;5073509;28;20271;-60
2023/04/03 07:56:35;;;;;;;1.10;0.95;;;;;;;;;;5073353;28;20705;-61
2023/04/03 07:59:02;;;;;;;1.98;0.98;;;;;;;;;;5073147;28;20203;-60
2023/04/03 08:01:32;;;;;;;1.13;0.85;;;;;;;;;;5073098;28;20645;-60
2023/04/03 08:03:59;;;;;;;2.60;1.25;;;;;;;;;;5073002;28;20223;-61
2023/04/03 08:06:26;;;;;;;2.78;1.00;;;;;;;;;;5073300;28;20192;-61
2023/04/03 08:08:54;;;;;;;4.22;1.20;;;;;;;;;;5073275;28;20222;-61
2023/04/03 08:11:22;;;;;;;3.28;0.90;;;;;;;;;;5073105;28;20197;-61
2023/04/03 08:13:49;;;;;;;1.60;0.77;;;;;;;;;;5072874;28;20213;-61
2023/04/03 08:16:17;;;;;;;3.47;0.93;;;;;;;;;;5072992;28;20663;-61
2023/04/03 08:18:45;;;;;;;1.67;0.90;;;;;;;;;;5073142;28;20280;-61
2023/04/03 08:21:13;;;;;;;2.95;1.17;;;;;;;;;;5073088;28;20280;-60
2023/04/03 08:23:40;;;;;;;3.55;1.10;;;;;;;;;;5072964;28;20193;-60
2023/04/03 08:26:10;;;;;;;2.22;1.23;;;;;;;;;;5072890;28;20200;-61
2023/04/03 08:28:37;;;;;;;2.35;1.23;;;;;;;;;;5072782;28;20288;-61
2023/04/03 08:31:06;;;;;;;4.30;1.10;;;;;;;;;;5072689;28;20283;-61
2023/04/03 08:33:33;;;;;;;0.80;0.80;;;;;;;;;;5072645;28;20661;-60
2023/04/03 08:36:00;;;;;;;4.68;1.30;;;;;;;;;;5072597;28;20636;-60
2023/04/03 08:38:27;;;;;;;1.40;1.02;;;;;;;;;;5072693;28;20595;-61
2023/04/03 08:41:01;;;;;;;3.15;0.80;;;;;;;;;;5072494;28;20280;-61
2023/04/03 08:43:36;;;;;;;2.63;0.80;;;;;;;;;;5072618;28;20600;-61
2023/04/03 08:46:06;;;;;;;1.17;1.00;;;;;;;;;;5072734;28;20196;-61
2023/04/03 08:48:35;;;;;;;1.40;1.00;;;;;;;;;;5072517;28;20200;-61
2023/04/03 08:51:05;;;;;;;2.30;1.30;;;;;;;;;;5072559;28;20188;-61
2023/04/03 08:53:35;;;;;;;1.30;0.75;;;;;;;;;;5072339;28;20243;-61
2023/04/03 08:56:04;;;;;;;2.45;1.27;;;;;;;;;;5072615;28;20276;-61
2023/04/03 08:58:34;;;;;;;2.90;1.20;;;;;;;;;;5072541;28;20289;-61
2023/04/03 09:01:03;;;;;;;4.10;1.15;;;;;;;;;;5072407;28;20196;-61
2023/04/03 09:03:31;;;;;;;2.85;1.17;;;;;;;;;;5072409;28;20193;-61
2023/04/03 09:06:00;;;;;;;8.85;1.55;;;;;;;;;;5072317;28;20246;-61
2023/04/03 09:08:28;;;;;;;2.25;1.10;;;;;;;;;;5072546;28;20188;-61
2023/04/03 09:11:01;;;;;;;3.58;1.02;;;;;;;;;;5071699;28;20289;-61
2023/04/03 09:13:30;;;;;;;2.58;1.10;;;;;;;;;;5072443;28;20221;-61
2023/04/03 09:15:58;;;;;;;1.73;0.75;;;;;;;;;;5072242;28;20286;-62
2023/04/03 09:18:28;;;;;;;1.10;0.80;;;;;;;;;;5072201;28;20277;-61
2023/04/03 09:20:57;;;;;;;1.35;0.73;;;;;;;;;;5072338;28;20196;-61
2023/04/03 09:23:26;;;;;;;2.00;0.90;;;;;;;;;;5072305;28;20613;-61
2023/04/03 09:25:55;;;;;;;1.00;0.90;;;;;;;;;;5072242;28;20635;-61
2023/04/03 09:28:22;;;;;;;1.27;1.00;;;;;;;;;;5072164;28;20728;-61
2023/04/03 09:30:49;;;;;;;1.00;0.90;;;;;;;;;;5071989;28;20712;-61
2023/04/03 09:33:18;;;;;;;1.67;0.90;;;;;;;;;;5071923;28;20192;-61
2023/04/03 09:35:45;;;;;;;2.10;1.05;;;;;;;;;;5072040;28;20253;-61
2023/04/03 09:38:17;;;;;;;1.45;0.90;;;;;;;;;;5072229;28;20277;-62
2023/04/03 09:41:05;;;;;;;5.03;0.98;;;;;;;;;;5072155;28;20193;-65
2023/04/03 09:43:33;;;;;;;2.25;1.10;;;;;;;;;;5071929;28;20257;-61
2023/04/03 09:46:15;;;;;;;2.22;1.10;;;;;;;;;;5072467;28;20613;-61
2023/04/03 09:48:51;;;;;;;0.80;0.80;;;;;;;;;;5072026;28;20293;-61
2023/04/03 09:51:18;;;;;;;1.20;1.10;;;;;;;;;;5071911;28;20196;-61
2023/04/03 09:53:45;;;;;;;4.30;1.08;;;;;;;;;;5071698;28;20280;-61
2023/04/03 09:56:21;;;;;;;1.33;1.17;;;;;;;;;;5071771;28;20771;-61
2023/04/03 09:58:49;;;;;;;3.13;0.98;;;;;;;;;;5071810;28;20288;-61
2023/04/03 10:01:22;;;;;;;1.30;0.80;;;;;;;;;;5071846;28;20281;-61
2023/04/03 10:04:03;;;;;;;2.80;0.90;;;;;;;;;;5071794;28;20276;-61
2023/04/03 10:06:32;;;;;;;1.67;0.68;;;;;;;;;;5071738;28;20564;-61
2023/04/03 10:09:00;;;;;;;0.98;0.80;;;;;;;;;;5071884;28;20190;-61
2023/04/03 10:11:28;;;;;;;2.35;1.00;;;;;;;;;;5071932;28;20542;-61
2023/04/03 10:13:59;;;;;;;2.20;0.95;;;;;;;;;;5071327;28;20561;-62
2023/04/03 10:16:28;;;;;;;1.60;1.00;;;;;;;;;;5071308;28;20260;-61
2023/04/03 10:19:03;;;;;;;3.28;1.00;;;;;;;;;;5069183;28;20190;-62
2023/04/03 10:21:35;;;;;;;2.72;1.05;;;;;;;;;;5072423;28;20247;-62
2023/04/03 10:24:08;;;;;;;2.28;0.90;;;;;;;;;;5074845;28;20205;-61
2023/04/03 10:26:40;;;;;;;3.50;2.25;;;;;;;;;;5074687;28;20217;-61
2023/04/03 10:29:12;;;;;;;1.83;0.80;;;;;;;;;;5071850;28;20182;-61
2023/04/03 10:31:43;;;;;;;2.45;1.20;;;;;;;;;;5072544;28;20192;-61
2023/04/03 10:34:17;;;;;;;3.70;1.17;;;;;;;;;;5074586;28;20185;-62
2023/04/03 10:36:47;;;;;;;3.67;1.10;;;;;;;;;;5074846;28;20540;-61
2023/04/03 10:39:17;;;;;;;2.60;1.40;;;;;;;;;;5074991;28;20285;-61
2023/04/03 10:41:48;;;;;;;1.40;1.25;;;;;;;;;;5074829;28;20281;-61
2023/04/03 10:44:18;;;;;;;3.67;1.00;;;;;;;;;;5074518;28;20335;-61
2023/04/03 10:46:46;;;;;;;3.15;1.08;;;;;;;;;;5075067;28;20284;-61
2023/04/03 10:49:20;;;;;;;1.52;0.93;;;;;;;;;;5075104;28;20625;-61
2023/04/03 10:51:49;;;;;;;3.13;1.25;;;;;;;;;;5074918;28;20203;-61
2023/04/03 10:54:18;;;;;;;3.45;1.00;;;;;;;;;;5074660;28;20203;-61
2023/04/03 10:56:47;;;;;;;1.08;0.98;;;;;;;;;;5074959;28;20217;-61
2023/04/03 10:59:18;;;;;;;1.88;0.98;;;;;;;;;;5075006;28;20380;-61
2023/04/03 11:01:46;;;;;;;3.15;1.50;;;;;;;;;;5074719;28;20628;-61
2023/04/03 11:04:14;;;;;;;2.65;1.20;;;;;;;;;;5074607;28;20558;-61
2023/04/03 11:06:47;;;;;;;2.50;1.13;;;;;;;;;;5074481;28;20190;-61
2023/04/03 11:09:18;;;;;;;2.60;1.02;;;;;;;;;;5074547;28;20189;-61
2023/04/03 11:11:47;;;;;;;2.22;1.25;;;;;;;;;;5074494;28;20613;-61
2023/04/03 11:14:16;;;;;;;3.17;1.15;;;;;;;;;;5074190;28;20276;-61
2023/04/03 11:16:45;;;;;;;5.70;1.75;;;;;;;;;;5074240;28;20201;-61
2023/04/03 11:19:18;;;;;;;5.70;1.70;;;;;;;;;;5074051;28;20246;-61
2023/04/03 11:21:48;;;;;;;1.80;1.10;;;;;;;;;;5073783;28;20506;-62
2023/04/03 11:24:18;;;;;;;2.50;1.40;;;;;;;;;;5073170;28;20883;-62
2023/04/03 11:26:46;;;;;;;3.97;1.25;;;;;;;;;;5074072;28;20212;-62
2023/04/03 11:29:16;;;;;;;1.60;1.10;;;;;;;;;;5073921;28;20196;-63
2023/04/03 11:31:49;;;;;;;3.63;1.23;;;;;;;;;;5073760;28;20598;-62
2023/04/03 11:34:27;;;;;;;2.30;1.30;;;;;;;;;;5073037;28;20520;-62
2023/04/03 11:36:57;;;;;;;2.97;1.30;;;;;;;;;;5073930;28;20221;-62
2023/04/03 11:39:26;;;;;;;3.15;2.47;;;;;;;;;;5073813;28;20270;-61
2023/04/03 11:41:53;;;;;;;1.80;1.15;;;;;;;;;;5073718;28;20280;-61
2023/04/03 11:44:31;;;;;;;1.30;1.10;;;;;;;;;;5073323;28;20245;-61
2023/04/03 11:46:59;;;;;;;1.50;1.17;;;;;;;;;;5073720;28;20281;-62
2023/04/03 11:49:45;;;;;;;1.10;1.00;;;;;;;;;;5073696;28;20547;-62
2023/04/03 11:52:13;;;;;;;9.25;1.25;;;;;;;;;;5073511;28;20189;-62
2023/04/03 11:54:50;;;;;;;2.67;1.00;;;;;;;;;;5073310;28;20189;-61
2023/04/03 11:57:36;;;;;;;1.60;1.50;;;;;;;;;;5073532;28;20458;-62
2023/04/03 12:00:22;;;;;;;2.45;0.98;;;;;;;;;;5073477;28;20509;-61
2023/04/03 12:02:48;;;;;;;1.10;0.90;;;;;;;;;;5073457;28;20231;-61
2023/04/03 12:05:27;;;;;;;2.57;1.20;;;;;;;;;;5073162;28;20284;-61
2023/04/03 12:08:09;;;;;;;1.43;1.07;;;;;;;;;;5073371;28;20448;-62
2023/04/03 12:10:37;;;;;;;3.27;1.00;;;;;;;;;;5072964;28;20803;-61
2023/04/03 12:13:15;;;;;;;1.58;0.90;;;;;;;;;;5073043;28;20943;-61
2023/04/03 12:15:59;;;;;;;1.20;1.10;;;;;;;;;;5073043;28;20707;-61
2023/04/03 12:18:50;;;;;;;2.03;0.80;;;;;;;;;;5072410;28;20200;-62
2023/04/03 12:21:18;;;;;;;2.25;1.23;;;;;;;;;;5073073;28;20452;-61
2023/04/03 12:24:00;;;;;;;4.10;1.25;;;;;;;;;;5072943;28;20288;-62
2023/04/03 12:26:29;;;;;;;1.00;0.90;;;;;;;;;;5073193;28;20204;-61
2023/04/03 12:28:57;;;;;;;1.80;1.00;;;;;;;;;;5073105;28;20277;-61
2023/04/03 12:31:26;;;;;;;2.55;1.00;;;;;;;;;;5073007;28;20200;-61
2023/04/03 12:34:02;;;;;;;3.97;1.30;;;;;;;;;;5072810;28;20190;-61
2023/04/03 12:36:32;;;;;;;2.25;1.10;;;;;;;;;;5072463;28;20217;-61
2023/04/03 12:39:03;;;;;;;1.60;1.27;;;;;;;;;;5072866;28;20193;-62
2023/04/03 12:41:38;;;;;;;3.35;1.33;;;;;;;;;;5072896;28;20276;-61
2023/04/03 12:44:11;;;;;;;2.00;1.25;;;;;;;;;;5071824;28;20223;-62
2023/04/03 12:46:40;;;;;;;1.40;1.02;;;;;;;;;;5072473;28;20224;-61
2023/04/03 12:49:16;;;;;;;1.90;1.23;;;;;;;;;;5072471;28;20208;-62
2023/04/03 12:51:44;;;;;;;1.60;1.10;;;;;;;;;;5072461;28;20542;-61
2023/04/03 12:54:15;;;;;;;3.30;1.95;;;;;;;;;;5072458;28;20443;-61
2023/04/03 12:56:43;;;;;;;2.93;1.43;;;;;;;;;;5072568;28;20763;-61
2023/04/03 12:59:15;;;;;;;3.47;1.40;;;;;;;;;;5072379;28;20448;-61
2023/04/03 13:01:42;;;;;;;1.90;1.10;;;;;;;;;;5072594;28;20452;-61
2023/04/03 13:04:12;;;;;;;2.07;1.20;;;;;;;;;;5072337;28;20954;-61
2023/04/03 13:06:40;;;;;;;2.97;1.17;;;;;;;;;;5072546;28;20450;-61
2023/04/03 13:09:08;;;;;;;1.20;1.10;;;;;;;;;;5072513;28;20444;-61
2023/04/03 13:11:36;;;;;;;2.03;1.03;;;;;;;;;;5072416;28;20493;-61
2023/04/03 13:14:05;;;;;;;2.07;1.10;;;;;;;;;;5072185;28;20565;-61
2023/04/03 13:16:33;;;;;;;2.13;1.92;;;;;;;;;;5072315;28;20483;-61
2023/04/03 13:19:00;;;;;;;1.30;1.00;;;;;;;;;;5072443;28;20299;-61
2023/04/03 13:21:28;;;;;;;2.30;1.50;;;;;;;;;;5072198;28;20284;-61
2023/04/03 13:23:56;;;;;;;1.15;1.00;;;;;;;;;;5072211;28;20458;-61
2023/04/03 13:26:25;;;;;;;3.37;1.27;;;;;;;;;;5072247;28;20196;-61
2023/04/03 13:28:53;;;;;;;2.95;1.10;;;;;;;;;;5072359;28;20857;-61
2023/04/03 13:31:24;;;;;;;1.63;1.10;;;;;;;;;;5072369;28;20220;-61
2023/04/03 13:33:55;;;;;;;1.93;1.13;;;;;;;;;;5072363;28;20538;-61
2023/04/03 13:36:23;;;;;;;2.60;1.30;;;;;;;;;;5072047;28;20582;-61
2023/04/03 13:38:59;;;;;;;1.47;1.20;;;;;;;;;;5072017;28;20454;-61
2023/04/03 13:41:27;;;;;;;4.88;1.30;;;;;;;;;;5072376;28;20458;-61
2023/04/03 13:43:54;;;;;;;1.30;1.00;;;;;;;;;;5071915;28;20217;-61
2023/04/03 13:46:27;;;;;;;3.37;1.30;;;;;;;;;;5072024;28;20546;-62
2023/04/03 13:48:55;;;;;;;1.30;1.20;;;;;;;;;;5072239;28;20448;-61
2023/04/03 13:51:23;;;;;;;2.17;1.25;;;;;;;;;;5072132;28;20267;-61
2023/04/03 13:53:51;;;;;;;2.10;1.30;;;;;;;;;;5072198;28;20284;-61
2023/04/03 13:56:21;;;;;;;5.70;1.17;;;;;;;;;;5073961;28;20490;-60
2023/04/03 13:58:56;;;;;;;3.78;1.80;;;;;;;;;;5075908;28;20834;-60
2023/04/03 14:01:25;;;;;;;1.20;1.00;;;;;;;;;;5075619;28;20185;-60
2023/04/03 14:03:54;;;;;;;2.50;1.40;;;;;;;;;;5075400;28;20301;-60
2023/04/03 14:06:21;;;;;;;4.20;1.13;;;;;;;;;;5075732;28;20451;-60
2023/04/03 14:08:49;;;;;;;3.83;1.13;;;;;;;;;;5075785;28;20198;-60
2023/04/03 14:11:16;;;;;;;2.40;1.00;;;;;;;;;;5075693;28;20190;-61
2023/04/03 14:13:44;;;;;;;2.03;1.10;;;;;;;;;;5075394;28;20193;-61
2023/04/03 14:16:14;;;;;;;1.47;1.27;;;;;;;;;;5075385;28;20316;-60
2023/04/03 14:18:42;;;;;;;1.55;1.00;;;;;;;;;;5074665;28;20791;-61
2023/04/03 14:21:10;;;;;;;1.77;1.10;;;;;;;;;;5075086;28;20182;-61
2023/04/03 14:23:37;;;;;;;1.63;1.00;;;;;;;;;;5074777;28;20542;-61
2023/04/03 14:26:06;;;;;;;1.38;0.98;;;;;;;;;;5074812;28;20192;-61
2023/04/03 14:28:33;;;;;;;2.03;1.20;;;;;;;;;;5072287;28;20194;-61
2023/04/03 14:31:00;;;;;;;0.80;0.80;;;;;;;;;;5074570;28;20197;-61
2023/04/03 14:33:30;;;;;;;3.07;1.23;;;;;;;;;;5075106;28;20220;-61
2023/04/03 14:35:59;;;;;;;2.75;1.00;;;;;;;;;;5075240;28;20835;-61
2023/04/03 14:38:27;;;;;;;1.70;1.13;;;;;;;;;;5075146;28;20224;-61
2023/04/03 14:40:54;;;;;;;1.53;0.93;;;;;;;;;;5075096;28;20455;-61
2023/04/03 14:43:21;;;;;;;6.18;1.10;;;;;;;;;;5074648;28;20896;-61
2023/04/03 14:45:48;;;;;;;1.67;0.93;;;;;;;;;;5075233;28;20197;-61
2023/04/03 14:48:19;;;;;;;2.60;1.20;;;;;;;;;;5075005;28;20186;-61
2023/04/03 14:50:46;;;;;;;1.40;1.30;;;;;;;;;;5075131;28;20451;-61
2023/04/03 14:53:15;;;;;;;1.10;1.00;;;;;;;;;;5074763;28;20185;-61